sensor_id;sensor_type;location;lat;lon;timestamp;P1;durP1;ratioP1;P2;durP2;ratioP2
5279;SDS011;2663;53.588;10.010;2022-12-07T00:01:11;20.20;;;9.90;;
5279;SDS011;2663;53.588;10.010;2022-12-07T00:03:39;17.27;;;11.07;;
5279;SDS011;2663;53.588;10.010;2022-12-07T00:06:08;17.00;;;11.20;;
5279;SDS011;2663;53.588;10.010;2022-12-07T00:08:36;15.73;;;9.63;;
5279;SDS011;2663;53.588;10.010;2022-12-07T00:11:06;16.43;;;10.83;;
5279;SDS011;2663;53.588;10.010;2022-12-07T00:13:34;14.83;;;9.90;;
5279;SDS011;2663;53.588;10.010;2022-12-07T00:16:06;18.93;;;11.97;;
5279;SDS011;2663;53.588;10.010;2022-12-07T00:18:41;16.67;;;10.50;;
5279;SDS011;2663;53.588;10.010;2022-12-07T00:21:12;16.57;;;10.57;;
5279;SDS011;2663;53.588;10.010;2022-12-07T00:23:40;22.60;;;12.30;;
5279;SDS011;2663;53.588;10.010;2022-12-07T00:26:26;17.63;;;10.80;;
5279;SDS011;2663;53.588;10.010;2022-12-07T00:28:55;17.90;;;11.67;;
5279;SDS011;2663;53.588;10.010;2022-12-07T00:31:24;15.93;;;10.30;;
5279;SDS011;2663;53.588;10.010;2022-12-07T00:33:54;15.33;;;10.13;;
5279;SDS011;2663;53.588;10.010;2022-12-07T00:36:23;14.23;;;10.00;;
5279;SDS011;2663;53.588;10.010;2022-12-07T00:38:52;18.20;;;10.33;;
5279;SDS011;2663;53.588;10.010;2022-12-07T00:41:21;16.63;;;9.80;;
5279;SDS011;2663;53.588;10.010;2022-12-07T00:43:50;17.33;;;10.83;;
5279;SDS011;2663;53.588;10.010;2022-12-07T00:46:17;24.23;;;10.50;;
5279;SDS011;2663;53.588;10.010;2022-12-07T00:48:46;14.60;;;9.73;;
5279;SDS011;2663;53.588;10.010;2022-12-07T00:51:14;15.33;;;9.20;;
5279;SDS011;2663;53.588;10.010;2022-12-07T00:53:42;17.37;;;9.80;;
5279;SDS011;2663;53.588;10.010;2022-12-07T00:56:10;17.03;;;9.47;;
5279;SDS011;2663;53.588;10.010;2022-12-07T00:58:39;15.47;;;9.17;;
5279;SDS011;2663;53.588;10.010;2022-12-07T01:01:07;14.00;;;9.57;;
5279;SDS011;2663;53.588;10.010;2022-12-07T01:03:35;13.63;;;8.60;;
5279;SDS011;2663;53.588;10.010;2022-12-07T01:06:03;15.80;;;9.67;;
5279;SDS011;2663;53.588;10.010;2022-12-07T01:08:30;11.30;;;7.53;;
5279;SDS011;2663;53.588;10.010;2022-12-07T01:10:58;15.43;;;8.67;;
5279;SDS011;2663;53.588;10.010;2022-12-07T01:13:30;13.63;;;8.53;;
5279;SDS011;2663;53.588;10.010;2022-12-07T01:15:59;18.30;;;8.77;;
5279;SDS011;2663;53.588;10.010;2022-12-07T01:18:27;9.77;;;7.20;;
5279;SDS011;2663;53.588;10.010;2022-12-07T01:20:59;15.40;;;8.30;;
5279;SDS011;2663;53.588;10.010;2022-12-07T01:23:31;19.50;;;8.53;;
5279;SDS011;2663;53.588;10.010;2022-12-07T01:25:59;14.97;;;8.73;;
5279;SDS011;2663;53.588;10.010;2022-12-07T01:28:27;12.20;;;7.37;;
5279;SDS011;2663;53.588;10.010;2022-12-07T01:30:57;13.30;;;7.93;;
5279;SDS011;2663;53.588;10.010;2022-12-07T01:33:26;15.40;;;8.07;;
5279;SDS011;2663;53.588;10.010;2022-12-07T01:35:55;12.70;;;7.60;;
5279;SDS011;2663;53.588;10.010;2022-12-07T01:38:40;20.90;;;9.00;;
5279;SDS011;2663;53.588;10.010;2022-12-07T01:41:07;15.23;;;8.00;;
5279;SDS011;2663;53.588;10.010;2022-12-07T01:43:34;15.73;;;7.90;;
5279;SDS011;2663;53.588;10.010;2022-12-07T01:46:02;16.10;;;7.50;;
5279;SDS011;2663;53.588;10.010;2022-12-07T01:51:01;15.40;;;9.00;;
5279;SDS011;2663;53.588;10.010;2022-12-07T01:53:31;14.10;;;8.47;;
5279;SDS011;2663;53.588;10.010;2022-12-07T01:56:00;13.27;;;7.90;;
5279;SDS011;2663;53.588;10.010;2022-12-07T01:58:27;12.97;;;8.27;;
5279;SDS011;2663;53.588;10.010;2022-12-07T02:00:54;17.80;;;9.63;;
5279;SDS011;2663;53.588;10.010;2022-12-07T02:03:30;18.63;;;7.90;;
5279;SDS011;2663;53.588;10.010;2022-12-07T02:06:00;12.60;;;7.10;;
5279;SDS011;2663;53.588;10.010;2022-12-07T02:08:27;15.10;;;6.80;;
5279;SDS011;2663;53.588;10.010;2022-12-07T02:10:54;12.30;;;7.60;;
5279;SDS011;2663;53.588;10.010;2022-12-07T02:13:24;8.93;;;5.30;;
5279;SDS011;2663;53.588;10.010;2022-12-07T02:19:09;12.83;;;6.73;;
5279;SDS011;2663;53.588;10.010;2022-12-07T02:24:41;17.30;;;5.60;;
5279;SDS011;2663;53.588;10.010;2022-12-07T02:30:28;7.63;;;5.17;;
5279;SDS011;2663;53.588;10.010;2022-12-07T02:35:34;14.00;;;5.60;;
5279;SDS011;2663;53.588;10.010;2022-12-07T02:38:20;12.17;;;6.13;;
5279;SDS011;2663;53.588;10.010;2022-12-07T02:40:55;13.07;;;5.13;;
5279;SDS011;2663;53.588;10.010;2022-12-07T02:43:31;9.30;;;3.43;;
5279;SDS011;2663;53.588;10.010;2022-12-07T02:46:06;6.83;;;4.03;;
5279;SDS011;2663;53.588;10.010;2022-12-07T02:48:35;6.17;;;3.20;;
5279;SDS011;2663;53.588;10.010;2022-12-07T02:51:04;5.93;;;3.57;;
5279;SDS011;2663;53.588;10.010;2022-12-07T02:53:35;5.63;;;3.30;;
5279;SDS011;2663;53.588;10.010;2022-12-07T03:04:32;8.33;;;3.10;;
5279;SDS011;2663;53.588;10.010;2022-12-07T03:07:22;5.80;;;2.00;;
5279;SDS011;2663;53.588;10.010;2022-12-07T03:10:14;4.70;;;2.80;;
5279;SDS011;2663;53.588;10.010;2022-12-07T03:18:10;2.20;;;1.97;;
5279;SDS011;2663;53.588;10.010;2022-12-07T03:20:41;4.83;;;1.93;;
5279;SDS011;2663;53.588;10.010;2022-12-07T03:23:10;3.00;;;2.17;;
5279;SDS011;2663;53.588;10.010;2022-12-07T03:25:39;3.83;;;1.80;;
5279;SDS011;2663;53.588;10.010;2022-12-07T03:28:09;2.63;;;1.77;;
5279;SDS011;2663;53.588;10.010;2022-12-07T03:30:42;1.83;;;1.73;;
5279;SDS011;2663;53.588;10.010;2022-12-07T03:33:26;1.77;;;1.67;;
5279;SDS011;2663;53.588;10.010;2022-12-07T03:36:02;2.80;;;1.70;;
5279;SDS011;2663;53.588;10.010;2022-12-07T03:38:37;3.70;;;1.27;;
5279;SDS011;2663;53.588;10.010;2022-12-07T03:41:09;5.87;;;1.10;;
5279;SDS011;2663;53.588;10.010;2022-12-07T03:43:42;3.40;;;1.40;;
5279;SDS011;2663;53.588;10.010;2022-12-07T03:49:25;3.00;;;1.40;;
5279;SDS011;2663;53.588;10.010;2022-12-07T03:54:44;4.63;;;1.00;;
5279;SDS011;2663;53.588;10.010;2022-12-07T03:57:28;1.13;;;1.00;;
5279;SDS011;2663;53.588;10.010;2022-12-07T03:59:56;1.70;;;1.60;;
5279;SDS011;2663;53.588;10.010;2022-12-07T04:02:25;2.10;;;1.13;;
5279;SDS011;2663;53.588;10.010;2022-12-07T04:04:54;2.67;;;1.07;;
5279;SDS011;2663;53.588;10.010;2022-12-07T04:07:21;2.00;;;1.30;;
5279;SDS011;2663;53.588;10.010;2022-12-07T04:09:48;1.27;;;1.17;;
5279;SDS011;2663;53.588;10.010;2022-12-07T04:12:15;3.70;;;1.33;;
5279;SDS011;2663;53.588;10.010;2022-12-07T04:14:41;2.90;;;1.43;;
5279;SDS011;2663;53.588;10.010;2022-12-07T04:17:08;2.93;;;1.43;;
5279;SDS011;2663;53.588;10.010;2022-12-07T04:19:35;1.47;;;1.33;;
5279;SDS011;2663;53.588;10.010;2022-12-07T04:22:02;1.47;;;1.20;;
5279;SDS011;2663;53.588;10.010;2022-12-07T04:24:30;5.70;;;1.30;;
5279;SDS011;2663;53.588;10.010;2022-12-07T04:26:58;3.13;;;1.40;;
5279;SDS011;2663;53.588;10.010;2022-12-07T04:29:25;8.13;;;1.60;;
5279;SDS011;2663;53.588;10.010;2022-12-07T04:31:52;3.20;;;1.63;;
5279;SDS011;2663;53.588;10.010;2022-12-07T04:34:19;1.30;;;1.20;;
5279;SDS011;2663;53.588;10.010;2022-12-07T04:36:46;4.73;;;2.00;;
5279;SDS011;2663;53.588;10.010;2022-12-07T04:39:18;8.53;;;1.40;;
5279;SDS011;2663;53.588;10.010;2022-12-07T04:41:47;2.70;;;1.50;;
5279;SDS011;2663;53.588;10.010;2022-12-07T04:44:14;3.60;;;1.57;;
5279;SDS011;2663;53.588;10.010;2022-12-07T04:46:42;2.30;;;1.40;;
5279;SDS011;2663;53.588;10.010;2022-12-07T04:49:09;2.83;;;1.73;;
5279;SDS011;2663;53.588;10.010;2022-12-07T04:51:37;8.90;;;1.83;;
5279;SDS011;2663;53.588;10.010;2022-12-07T04:54:04;3.47;;;1.90;;
5279;SDS011;2663;53.588;10.010;2022-12-07T04:56:31;2.13;;;1.93;;
5279;SDS011;2663;53.588;10.010;2022-12-07T04:58:58;6.40;;;1.90;;
5279;SDS011;2663;53.588;10.010;2022-12-07T05:01:24;5.77;;;1.80;;
5279;SDS011;2663;53.588;10.010;2022-12-07T05:03:51;1.80;;;1.70;;
5279;SDS011;2663;53.588;10.010;2022-12-07T05:06:18;2.50;;;1.90;;
5279;SDS011;2663;53.588;10.010;2022-12-07T05:08:45;7.67;;;2.10;;
5279;SDS011;2663;53.588;10.010;2022-12-07T05:11:12;3.63;;;2.30;;
5279;SDS011;2663;53.588;10.010;2022-12-07T05:13:59;2.83;;;1.87;;
5279;SDS011;2663;53.588;10.010;2022-12-07T05:16:26;2.20;;;1.87;;
5279;SDS011;2663;53.588;10.010;2022-12-07T05:18:53;2.37;;;2.20;;
5279;SDS011;2663;53.588;10.010;2022-12-07T05:21:20;4.40;;;1.93;;
5279;SDS011;2663;53.588;10.010;2022-12-07T05:23:48;2.40;;;1.73;;
5279;SDS011;2663;53.588;10.010;2022-12-07T05:26:14;4.03;;;1.93;;
5279;SDS011;2663;53.588;10.010;2022-12-07T05:28:41;4.13;;;2.23;;
5279;SDS011;2663;53.588;10.010;2022-12-07T05:31:08;2.70;;;2.13;;
5279;SDS011;2663;53.588;10.010;2022-12-07T05:33:34;6.17;;;2.23;;
5279;SDS011;2663;53.588;10.010;2022-12-07T05:36:01;2.03;;;1.83;;
5279;SDS011;2663;53.588;10.010;2022-12-07T05:38:31;2.10;;;2.00;;
5279;SDS011;2663;53.588;10.010;2022-12-07T05:41:02;3.27;;;1.90;;
5279;SDS011;2663;53.588;10.010;2022-12-07T05:43:30;5.87;;;2.00;;
5279;SDS011;2663;53.588;10.010;2022-12-07T05:45:57;2.37;;;2.03;;
5279;SDS011;2663;53.588;10.010;2022-12-07T05:48:24;1.73;;;1.63;;
5279;SDS011;2663;53.588;10.010;2022-12-07T05:50:51;6.03;;;2.83;;
5279;SDS011;2663;53.588;10.010;2022-12-07T05:53:18;5.37;;;2.87;;
5279;SDS011;2663;53.588;10.010;2022-12-07T05:55:48;2.50;;;2.30;;
5279;SDS011;2663;53.588;10.010;2022-12-07T05:58:15;5.17;;;2.03;;
5279;SDS011;2663;53.588;10.010;2022-12-07T06:01:00;2.53;;;2.03;;
5279;SDS011;2663;53.588;10.010;2022-12-07T06:03:27;3.93;;;1.60;;
5279;SDS011;2663;53.588;10.010;2022-12-07T06:05:54;2.40;;;2.20;;
5279;SDS011;2663;53.588;10.010;2022-12-07T06:08:20;4.53;;;2.20;;
5279;SDS011;2663;53.588;10.010;2022-12-07T06:10:47;3.67;;;2.17;;
5279;SDS011;2663;53.588;10.010;2022-12-07T06:13:34;5.40;;;2.43;;
5279;SDS011;2663;53.588;10.010;2022-12-07T06:16:01;4.90;;;2.43;;
5279;SDS011;2663;53.588;10.010;2022-12-07T06:18:27;3.80;;;2.00;;
5279;SDS011;2663;53.588;10.010;2022-12-07T06:20:54;5.93;;;1.97;;
5279;SDS011;2663;53.588;10.010;2022-12-07T06:23:21;1.63;;;1.43;;
5279;SDS011;2663;53.588;10.010;2022-12-07T06:25:47;3.20;;;2.00;;
5279;SDS011;2663;53.588;10.010;2022-12-07T06:28:14;4.10;;;1.97;;
5279;SDS011;2663;53.588;10.010;2022-12-07T06:30:40;3.27;;;1.90;;
5279;SDS011;2663;53.588;10.010;2022-12-07T06:33:07;2.30;;;1.63;;
5279;SDS011;2663;53.588;10.010;2022-12-07T06:35:34;4.43;;;2.40;;
5279;SDS011;2663;53.588;10.010;2022-12-07T06:38:00;6.10;;;1.80;;
5279;SDS011;2663;53.588;10.010;2022-12-07T06:40:27;9.07;;;3.20;;
5279;SDS011;2663;53.588;10.010;2022-12-07T06:42:54;9.00;;;3.90;;
5279;SDS011;2663;53.588;10.010;2022-12-07T06:45:20;2.80;;;1.67;;
5279;SDS011;2663;53.588;10.010;2022-12-07T06:47:47;3.50;;;2.27;;
5279;SDS011;2663;53.588;10.010;2022-12-07T06:50:14;9.53;;;2.30;;
5279;SDS011;2663;53.588;10.010;2022-12-07T06:52:40;11.73;;;1.83;;
5279;SDS011;2663;53.588;10.010;2022-12-07T06:55:07;3.17;;;1.90;;
5279;SDS011;2663;53.588;10.010;2022-12-07T06:57:34;9.83;;;1.93;;
5279;SDS011;2663;53.588;10.010;2022-12-07T07:00:00;7.10;;;1.53;;
5279;SDS011;2663;53.588;10.010;2022-12-07T07:02:28;16.43;;;1.80;;
5279;SDS011;2663;53.588;10.010;2022-12-07T07:04:55;4.50;;;1.43;;
5279;SDS011;2663;53.588;10.010;2022-12-07T07:07:22;2.80;;;1.80;;
5279;SDS011;2663;53.588;10.010;2022-12-07T07:09:48;3.77;;;1.60;;
5279;SDS011;2663;53.588;10.010;2022-12-07T07:12:15;1.60;;;1.33;;
5279;SDS011;2663;53.588;10.010;2022-12-07T07:14:42;3.77;;;3.37;;
5279;SDS011;2663;53.588;10.010;2022-12-07T07:17:09;1.43;;;1.33;;
5279;SDS011;2663;53.588;10.010;2022-12-07T07:19:36;1.80;;;1.30;;
5279;SDS011;2663;53.588;10.010;2022-12-07T07:22:03;3.87;;;1.53;;
5279;SDS011;2663;53.588;10.010;2022-12-07T07:24:30;2.40;;;1.33;;
5279;SDS011;2663;53.588;10.010;2022-12-07T07:26:57;4.40;;;1.40;;
5279;SDS011;2663;53.588;10.010;2022-12-07T07:29:23;3.57;;;1.63;;
5279;SDS011;2663;53.588;10.010;2022-12-07T07:31:50;2.50;;;0.97;;
5279;SDS011;2663;53.588;10.010;2022-12-07T07:34:17;4.97;;;1.60;;
5279;SDS011;2663;53.588;10.010;2022-12-07T07:36:43;5.27;;;1.40;;
5279;SDS011;2663;53.588;10.010;2022-12-07T07:39:10;4.83;;;2.10;;
5279;SDS011;2663;53.588;10.010;2022-12-07T07:41:38;7.93;;;2.60;;
5279;SDS011;2663;53.588;10.010;2022-12-07T07:44:05;4.50;;;1.17;;
5279;SDS011;2663;53.588;10.010;2022-12-07T07:46:32;1.70;;;1.07;;
5279;SDS011;2663;53.588;10.010;2022-12-07T07:48:59;1.43;;;1.10;;
5279;SDS011;2663;53.588;10.010;2022-12-07T07:51:26;1.00;;;1.00;;
5279;SDS011;2663;53.588;10.010;2022-12-07T07:53:52;2.67;;;2.40;;
5279;SDS011;2663;53.588;10.010;2022-12-07T07:56:19;2.87;;;1.23;;
5279;SDS011;2663;53.588;10.010;2022-12-07T07:58:46;3.03;;;0.90;;
5279;SDS011;2663;53.588;10.010;2022-12-07T08:01:13;3.90;;;0.73;;
5279;SDS011;2663;53.588;10.010;2022-12-07T08:03:41;0.73;;;0.73;;
5279;SDS011;2663;53.588;10.010;2022-12-07T08:06:07;0.70;;;0.70;;
5279;SDS011;2663;53.588;10.010;2022-12-07T08:08:34;6.97;;;0.90;;
5279;SDS011;2663;53.588;10.010;2022-12-07T08:11:03;7.33;;;1.10;;
5279;SDS011;2663;53.588;10.010;2022-12-07T08:13:31;5.03;;;1.10;;
5279;SDS011;2663;53.588;10.010;2022-12-07T08:15:58;5.90;;;0.70;;
5279;SDS011;2663;53.588;10.010;2022-12-07T08:18:37;9.10;;;0.77;;
5279;SDS011;2663;53.588;10.010;2022-12-07T08:21:05;2.73;;;1.10;;
5279;SDS011;2663;53.588;10.010;2022-12-07T08:23:32;4.23;;;1.13;;
5279;SDS011;2663;53.588;10.010;2022-12-07T08:26:06;5.10;;;1.17;;
5279;SDS011;2663;53.588;10.010;2022-12-07T08:28:35;9.60;;;1.63;;
5279;SDS011;2663;53.588;10.010;2022-12-07T08:31:03;3.47;;;0.70;;
5279;SDS011;2663;53.588;10.010;2022-12-07T08:33:32;6.20;;;0.87;;
5279;SDS011;2663;53.588;10.010;2022-12-07T08:36:06;3.37;;;1.10;;
5279;SDS011;2663;53.588;10.010;2022-12-07T08:38:36;1.63;;;0.90;;
5279;SDS011;2663;53.588;10.010;2022-12-07T08:41:03;2.03;;;1.00;;
5279;SDS011;2663;53.588;10.010;2022-12-07T08:43:30;3.03;;;0.77;;
5279;SDS011;2663;53.588;10.010;2022-12-07T08:46:06;3.43;;;0.97;;
5279;SDS011;2663;53.588;10.010;2022-12-07T08:48:40;1.43;;;0.90;;
5279;SDS011;2663;53.588;10.010;2022-12-07T08:51:12;11.60;;;1.13;;
5279;SDS011;2663;53.588;10.010;2022-12-07T08:53:39;5.47;;;1.20;;
5279;SDS011;2663;53.588;10.010;2022-12-07T08:56:07;4.37;;;1.53;;
5279;SDS011;2663;53.588;10.010;2022-12-07T08:58:34;12.03;;;1.10;;
5279;SDS011;2663;53.588;10.010;2022-12-07T09:01:03;3.13;;;0.90;;
5279;SDS011;2663;53.588;10.010;2022-12-07T09:03:30;3.27;;;1.50;;
5279;SDS011;2663;53.588;10.010;2022-12-07T09:05:58;2.00;;;0.80;;
5279;SDS011;2663;53.588;10.010;2022-12-07T09:08:31;6.17;;;1.50;;
5279;SDS011;2663;53.588;10.010;2022-12-07T09:11:02;15.53;;;1.97;;
5279;SDS011;2663;53.588;10.010;2022-12-07T09:13:29;9.57;;;1.70;;
5279;SDS011;2663;53.588;10.010;2022-12-07T09:15:55;3.40;;;1.23;;
5279;SDS011;2663;53.588;10.010;2022-12-07T09:18:23;10.97;;;1.10;;
5279;SDS011;2663;53.588;10.010;2022-12-07T09:20:50;8.27;;;1.50;;
5279;SDS011;2663;53.588;10.010;2022-12-07T09:23:17;2.10;;;0.90;;
5279;SDS011;2663;53.588;10.010;2022-12-07T09:25:44;12.53;;;2.30;;
5279;SDS011;2663;53.588;10.010;2022-12-07T09:28:10;2.03;;;0.83;;
5279;SDS011;2663;53.588;10.010;2022-12-07T09:30:37;4.40;;;1.30;;
5279;SDS011;2663;53.588;10.010;2022-12-07T09:33:24;2.90;;;0.73;;
5279;SDS011;2663;53.588;10.010;2022-12-07T09:35:51;3.40;;;0.87;;
5279;SDS011;2663;53.588;10.010;2022-12-07T09:38:18;2.87;;;1.23;;
5279;SDS011;2663;53.588;10.010;2022-12-07T09:40:45;5.43;;;0.90;;
5279;SDS011;2663;53.588;10.010;2022-12-07T09:45:41;11.70;;;1.13;;
5279;SDS011;2663;53.588;10.010;2022-12-07T09:48:18;2.50;;;1.20;;
5279;SDS011;2663;53.588;10.010;2022-12-07T09:50:51;8.00;;;1.50;;
5279;SDS011;2663;53.588;10.010;2022-12-07T09:53:23;9.13;;;1.80;;
5279;SDS011;2663;53.588;10.010;2022-12-07T09:55:52;7.60;;;1.40;;
5279;SDS011;2663;53.588;10.010;2022-12-07T09:58:21;9.10;;;1.23;;
5279;SDS011;2663;53.588;10.010;2022-12-07T10:00:51;6.87;;;1.10;;
5279;SDS011;2663;53.588;10.010;2022-12-07T10:03:23;8.73;;;1.37;;
5279;SDS011;2663;53.588;10.010;2022-12-07T10:05:50;1.43;;;1.00;;
5279;SDS011;2663;53.588;10.010;2022-12-07T10:08:18;3.50;;;0.90;;
5279;SDS011;2663;53.588;10.010;2022-12-07T10:10:46;6.30;;;2.20;;
5279;SDS011;2663;53.588;10.010;2022-12-07T10:13:21;1.63;;;1.00;;
5279;SDS011;2663;53.588;10.010;2022-12-07T10:15:59;4.20;;;1.10;;
5279;SDS011;2663;53.588;10.010;2022-12-07T10:23:38;5.27;;;1.27;;
5279;SDS011;2663;53.588;10.010;2022-12-07T10:26:19;2.20;;;1.00;;
5279;SDS011;2663;53.588;10.010;2022-12-07T10:32:08;2.60;;;1.10;;
5279;SDS011;2663;53.588;10.010;2022-12-07T10:37:46;5.90;;;1.07;;
5279;SDS011;2663;53.588;10.010;2022-12-07T10:40:33;7.40;;;2.20;;
5279;SDS011;2663;53.588;10.010;2022-12-07T10:43:14;5.27;;;1.10;;
5279;SDS011;2663;53.588;10.010;2022-12-07T10:48:41;2.73;;;0.93;;
5279;SDS011;2663;53.588;10.010;2022-12-07T10:51:44;12.13;;;1.90;;
5279;SDS011;2663;53.588;10.010;2022-12-07T10:59:58;1.50;;;0.80;;
5279;SDS011;2663;53.588;10.010;2022-12-07T11:05:16;2.77;;;1.07;;
5279;SDS011;2663;53.588;10.010;2022-12-07T11:10:43;7.83;;;0.97;;
5279;SDS011;2663;53.588;10.010;2022-12-07T11:17:23;2.33;;;1.33;;
5279;SDS011;2663;53.588;10.010;2022-12-07T11:19:42;4.63;;;1.70;;
5279;SDS011;2663;53.588;10.010;2022-12-07T11:22:24;2.97;;;1.20;;
5279;SDS011;2663;53.588;10.010;2022-12-07T11:33:06;6.80;;;0.90;;
5279;SDS011;2663;53.588;10.010;2022-12-07T11:35:57;3.80;;;1.30;;
5279;SDS011;2663;53.588;10.010;2022-12-07T11:38:41;14.20;;;1.67;;
5279;SDS011;2663;53.588;10.010;2022-12-07T11:41:11;4.63;;;1.00;;
5279;SDS011;2663;53.588;10.010;2022-12-07T11:43:43;6.30;;;1.00;;
5279;SDS011;2663;53.588;10.010;2022-12-07T11:46:50;2.30;;;0.80;;
5279;SDS011;2663;53.588;10.010;2022-12-07T11:51:53;2.37;;;0.70;;
5279;SDS011;2663;53.588;10.010;2022-12-07T11:54:24;4.67;;;1.10;;
5279;SDS011;2663;53.588;10.010;2022-12-07T11:56:54;3.80;;;1.07;;
5279;SDS011;2663;53.588;10.010;2022-12-07T11:59:33;9.63;;;1.57;;
5279;SDS011;2663;53.588;10.010;2022-12-07T12:02:13;1.93;;;0.50;;
5279;SDS011;2663;53.588;10.010;2022-12-07T12:07:25;1.83;;;0.83;;
5279;SDS011;2663;53.588;10.010;2022-12-07T12:10:15;6.63;;;2.10;;
5279;SDS011;2663;53.588;10.010;2022-12-07T12:15:47;15.07;;;1.47;;
5279;SDS011;2663;53.588;10.010;2022-12-07T12:21:28;10.40;;;1.37;;
5279;SDS011;2663;53.588;10.010;2022-12-07T12:23:57;4.77;;;1.50;;
5279;SDS011;2663;53.588;10.010;2022-12-07T12:26:26;5.10;;;1.23;;
5279;SDS011;2663;53.588;10.010;2022-12-07T12:28:56;18.23;;;2.47;;
5279;SDS011;2663;53.588;10.010;2022-12-07T12:33:54;2.30;;;1.07;;
5279;SDS011;2663;53.588;10.010;2022-12-07T12:36:28;5.70;;;1.70;;
5279;SDS011;2663;53.588;10.010;2022-12-07T12:39:15;3.37;;;1.20;;
5279;SDS011;2663;53.588;10.010;2022-12-07T12:46:48;3.10;;;0.83;;
5279;SDS011;2663;53.588;10.010;2022-12-07T12:51:52;8.23;;;1.40;;
5279;SDS011;2663;53.588;10.010;2022-12-07T13:15:49;6.93;;;1.33;;
5279;SDS011;2663;53.588;10.010;2022-12-07T13:29:02;7.80;;;1.37;;
5279;SDS011;2663;53.588;10.010;2022-12-07T13:31:43;9.77;;;1.33;;
5279;SDS011;2663;53.588;10.010;2022-12-07T13:37:12;5.03;;;1.57;;
5279;SDS011;2663;53.588;10.010;2022-12-07T13:39:50;5.97;;;1.17;;
5279;SDS011;2663;53.588;10.010;2022-12-07T13:44:51;26.00;;;2.23;;
5279;SDS011;2663;53.588;10.010;2022-12-07T13:47:20;10.27;;;2.73;;
5279;SDS011;2663;53.588;10.010;2022-12-07T13:50:20;32.13;;;2.93;;
5279;SDS011;2663;53.588;10.010;2022-12-07T13:52:55;1.53;;;0.80;;
5279;SDS011;2663;53.588;10.010;2022-12-07T13:55:22;5.67;;;0.73;;
5279;SDS011;2663;53.588;10.010;2022-12-07T13:57:50;5.70;;;1.10;;
5279;SDS011;2663;53.588;10.010;2022-12-07T14:02:56;2.27;;;1.10;;
5279;SDS011;2663;53.588;10.010;2022-12-07T14:05:33;2.73;;;0.73;;
5279;SDS011;2663;53.588;10.010;2022-12-07T14:08:02;3.73;;;0.80;;
5279;SDS011;2663;53.588;10.010;2022-12-07T14:16:54;2.57;;;0.80;;
5279;SDS011;2663;53.588;10.010;2022-12-07T14:18:55;4.23;;;0.90;;
5279;SDS011;2663;53.588;10.010;2022-12-07T14:21:25;5.83;;;0.73;;
5279;SDS011;2663;53.588;10.010;2022-12-07T14:24:03;11.13;;;1.00;;
5279;SDS011;2663;53.588;10.010;2022-12-07T14:26:49;2.10;;;0.80;;
5279;SDS011;2663;53.588;10.010;2022-12-07T14:31:57;12.43;;;1.53;;
5279;SDS011;2663;53.588;10.010;2022-12-07T14:34:40;2.60;;;0.70;;
5279;SDS011;2663;53.588;10.010;2022-12-07T14:37:09;2.17;;;0.80;;
5279;SDS011;2663;53.588;10.010;2022-12-07T14:39:36;9.30;;;2.13;;
5279;SDS011;2663;53.588;10.010;2022-12-07T14:42:03;3.87;;;1.20;;
5279;SDS011;2663;53.588;10.010;2022-12-07T14:44:30;2.47;;;1.00;;
5279;SDS011;2663;53.588;10.010;2022-12-07T14:47:01;1.53;;;0.73;;
5279;SDS011;2663;53.588;10.010;2022-12-07T14:49:47;2.13;;;0.80;;
5279;SDS011;2663;53.588;10.010;2022-12-07T14:52:17;1.70;;;0.80;;
5279;SDS011;2663;53.588;10.010;2022-12-07T14:55:12;5.03;;;1.30;;
5279;SDS011;2663;53.588;10.010;2022-12-07T14:57:42;4.63;;;0.93;;
5279;SDS011;2663;53.588;10.010;2022-12-07T15:00:09;3.93;;;1.37;;
5279;SDS011;2663;53.588;10.010;2022-12-07T15:02:40;4.83;;;1.30;;
5279;SDS011;2663;53.588;10.010;2022-12-07T15:05:07;5.90;;;2.17;;
5279;SDS011;2663;53.588;10.010;2022-12-07T15:07:41;1.33;;;0.63;;
5279;SDS011;2663;53.588;10.010;2022-12-07T15:10:13;2.20;;;0.80;;
5279;SDS011;2663;53.588;10.010;2022-12-07T15:12:49;3.17;;;0.90;;
5279;SDS011;2663;53.588;10.010;2022-12-07T15:15:16;5.53;;;0.73;;
5279;SDS011;2663;53.588;10.010;2022-12-07T15:17:43;0.73;;;0.70;;
5279;SDS011;2663;53.588;10.010;2022-12-07T15:20:11;10.00;;;2.00;;
5279;SDS011;2663;53.588;10.010;2022-12-07T15:22:40;7.97;;;0.70;;
5279;SDS011;2663;53.588;10.010;2022-12-07T15:25:08;0.70;;;0.70;;
5279;SDS011;2663;53.588;10.010;2022-12-07T15:27:38;15.10;;;1.00;;
5279;SDS011;2663;53.588;10.010;2022-12-07T15:30:05;2.80;;;1.37;;
5279;SDS011;2663;53.588;10.010;2022-12-07T15:32:32;0.83;;;0.70;;
5279;SDS011;2663;53.588;10.010;2022-12-07T15:34:59;1.70;;;0.90;;
5279;SDS011;2663;53.588;10.010;2022-12-07T15:37:26;5.07;;;0.93;;
5279;SDS011;2663;53.588;10.010;2022-12-07T15:39:52;3.27;;;1.03;;
5279;SDS011;2663;53.588;10.010;2022-12-07T15:42:19;5.93;;;1.33;;
5279;SDS011;2663;53.588;10.010;2022-12-07T15:44:46;4.23;;;1.20;;
5279;SDS011;2663;53.588;10.010;2022-12-07T15:47:33;5.03;;;0.87;;
5279;SDS011;2663;53.588;10.010;2022-12-07T15:50:25;2.20;;;0.70;;
5279;SDS011;2663;53.588;10.010;2022-12-07T15:52:51;2.83;;;0.60;;
5279;SDS011;2663;53.588;10.010;2022-12-07T15:55:18;14.00;;;1.30;;
5279;SDS011;2663;53.588;10.010;2022-12-07T15:57:45;1.17;;;1.07;;
5279;SDS011;2663;53.588;10.010;2022-12-07T16:00:11;2.10;;;0.70;;
5279;SDS011;2663;53.588;10.010;2022-12-07T16:02:39;1.20;;;1.10;;
5279;SDS011;2663;53.588;10.010;2022-12-07T16:05:06;4.50;;;1.47;;
5279;SDS011;2663;53.588;10.010;2022-12-07T16:07:33;6.20;;;0.90;;
5279;SDS011;2663;53.588;10.010;2022-12-07T16:09:59;1.40;;;0.80;;
5279;SDS011;2663;53.588;10.010;2022-12-07T16:12:26;2.50;;;0.80;;
5279;SDS011;2663;53.588;10.010;2022-12-07T16:14:53;3.77;;;1.20;;
5279;SDS011;2663;53.588;10.010;2022-12-07T16:17:19;3.13;;;1.00;;
5279;SDS011;2663;53.588;10.010;2022-12-07T16:19:46;5.40;;;0.83;;
5279;SDS011;2663;53.588;10.010;2022-12-07T16:22:13;3.20;;;0.93;;
5279;SDS011;2663;53.588;10.010;2022-12-07T16:24:39;2.90;;;1.20;;
5279;SDS011;2663;53.588;10.010;2022-12-07T16:27:06;3.43;;;1.00;;
5279;SDS011;2663;53.588;10.010;2022-12-07T16:29:33;2.17;;;1.20;;
5279;SDS011;2663;53.588;10.010;2022-12-07T16:32:00;4.50;;;1.33;;
5279;SDS011;2663;53.588;10.010;2022-12-07T16:34:27;8.47;;;1.60;;
5279;SDS011;2663;53.588;10.010;2022-12-07T16:36:53;3.03;;;1.23;;
5279;SDS011;2663;53.588;10.010;2022-12-07T16:39:29;6.73;;;1.27;;
5279;SDS011;2663;53.588;10.010;2022-12-07T16:41:56;6.73;;;1.80;;
5279;SDS011;2663;53.588;10.010;2022-12-07T16:44:23;4.50;;;1.67;;
5279;SDS011;2663;53.588;10.010;2022-12-07T16:46:49;2.77;;;1.60;;
5279;SDS011;2663;53.588;10.010;2022-12-07T16:49:16;1.23;;;0.93;;
5279;SDS011;2663;53.588;10.010;2022-12-07T16:51:43;4.03;;;2.63;;
5279;SDS011;2663;53.588;10.010;2022-12-07T16:54:10;23.63;;;9.03;;
5279;SDS011;2663;53.588;10.010;2022-12-07T16:56:38;12.10;;;2.73;;
5279;SDS011;2663;53.588;10.010;2022-12-07T16:59:05;5.43;;;1.80;;
5279;SDS011;2663;53.588;10.010;2022-12-07T17:01:32;16.47;;;2.33;;
5279;SDS011;2663;53.588;10.010;2022-12-07T17:04:00;5.50;;;2.03;;
5279;SDS011;2663;53.588;10.010;2022-12-07T17:06:27;6.63;;;2.00;;
5279;SDS011;2663;53.588;10.010;2022-12-07T17:08:55;17.67;;;4.20;;
5279;SDS011;2663;53.588;10.010;2022-12-07T17:11:24;2.07;;;1.50;;
5279;SDS011;2663;53.588;10.010;2022-12-07T17:13:52;3.13;;;1.37;;
5279;SDS011;2663;53.588;10.010;2022-12-07T17:16:37;4.73;;;1.20;;
5279;SDS011;2663;53.588;10.010;2022-12-07T17:19:08;13.27;;;1.80;;
5279;SDS011;2663;53.588;10.010;2022-12-07T17:21:37;3.47;;;1.83;;
5279;SDS011;2663;53.588;10.010;2022-12-07T17:24:04;3.80;;;1.60;;
5279;SDS011;2663;53.588;10.010;2022-12-07T17:26:32;7.47;;;2.50;;
5279;SDS011;2663;53.588;10.010;2022-12-07T17:29:01;3.33;;;1.40;;
5279;SDS011;2663;53.588;10.010;2022-12-07T17:31:32;9.73;;;1.67;;
5279;SDS011;2663;53.588;10.010;2022-12-07T17:34:00;4.03;;;1.80;;
5279;SDS011;2663;53.588;10.010;2022-12-07T17:36:27;4.17;;;1.90;;
5279;SDS011;2663;53.588;10.010;2022-12-07T17:38:56;5.33;;;1.40;;
5279;SDS011;2663;53.588;10.010;2022-12-07T17:41:24;5.03;;;1.43;;